createdAt,value
2024-05-09T00:00:31.665Z,99.99
2024-05-09T00:01:29.309Z,99.99
2024-05-09T00:02:28.303Z,99.99
2024-05-09T00:03:28.280Z,99.99
2024-05-09T00:04:28.302Z,99.99
2024-05-09T00:05:28.313Z,99.99
2024-05-09T00:06:28.220Z,99.99
2024-05-09T00:07:28.237Z,99.99
2024-05-09T00:08:28.305Z,99.99
2024-05-09T00:09:28.198Z,99.99
2024-05-09T00:10:35.358Z,99.99
2024-05-09T00:11:29.260Z,99.99
2024-05-09T00:12:28.183Z,99.99
2024-05-09T00:13:28.138Z,99.99
2024-05-09T00:14:28.149Z,99.99
2024-05-09T00:15:28.117Z,99.99
2024-05-09T00:16:28.107Z,99.99
2024-05-09T00:17:28.278Z,99.99
2024-05-09T00:18:28.263Z,99.99
2024-05-09T00:19:28.199Z,99.99
2024-05-09T00:20:36.227Z,99.99
2024-05-09T00:21:29.070Z,99.99
2024-05-09T00:22:28.090Z,99.99
2024-05-09T00:23:28.374Z,99.99
2024-05-09T00:24:28.115Z,99.99
2024-05-09T00:25:28.019Z,99.99
2024-05-09T00:26:28.164Z,99.99
2024-05-09T00:27:27.995Z,99.99
2024-05-09T00:28:28.027Z,99.99
2024-05-09T00:29:28.075Z,99.99
2024-05-09T00:30:33.953Z,99.99
2024-05-09T00:31:28.988Z,99.99
2024-05-09T00:32:28.065Z,99.99
2024-05-09T00:33:28.195Z,99.99
2024-05-09T00:34:28.160Z,99.99
2024-05-09T00:35:28.031Z,99.99
2024-05-09T00:36:28.296Z,99.99
2024-05-09T00:37:27.884Z,99.99
2024-05-09T00:38:27.894Z,99.99
2024-05-09T00:39:27.925Z,99.99
2024-05-09T00:40:37.245Z,99.99
2024-05-09T00:41:28.902Z,99.99
2024-05-09T00:42:27.822Z,99.99
2024-05-09T00:43:27.815Z,99.99
2024-05-09T00:44:27.864Z,99.99
2024-05-09T00:45:27.983Z,99.99
2024-05-09T00:46:27.820Z,99.99
2024-05-09T00:47:27.922Z,99.99
2024-05-09T00:48:27.951Z,99.99
2024-05-09T00:49:27.902Z,99.99
2024-05-09T00:50:35.555Z,99.99
2024-05-09T00:51:28.724Z,99.99
2024-05-09T00:52:27.707Z,99.99
2024-05-09T00:53:27.782Z,99.99
2024-05-09T00:54:27.715Z,99.99
2024-05-09T00:55:27.683Z,99.99
2024-05-09T00:56:27.709Z,99.99
2024-05-09T00:57:27.666Z,99.99
2024-05-09T00:58:27.651Z,99.99
2024-05-09T00:59:27.692Z,99.99
2024-05-09T01:00:35.664Z,99.99
2024-05-09T01:01:28.674Z,99.99
2024-05-09T01:02:27.710Z,99.99
2024-05-09T01:03:28.084Z,99.99
2024-05-09T01:04:27.670Z,99.99
2024-05-09T01:05:27.622Z,99.99
2024-05-09T01:06:27.559Z,99.99
2024-05-09T01:07:27.554Z,99.99
2024-05-09T01:08:27.628Z,99.99
2024-05-09T01:09:27.525Z,99.99
2024-05-09T01:10:32.311Z,99.99
2024-05-09T01:11:28.586Z,99.99
2024-05-09T01:12:27.746Z,99.99
2024-05-09T01:13:27.519Z,99.99
2024-05-09T01:14:27.558Z,99.99
2024-05-09T01:15:27.535Z,99.99
2024-05-09T01:16:27.597Z,99.99
2024-05-09T01:17:27.820Z,99.99
2024-05-09T01:18:27.936Z,99.99
2024-05-09T01:19:27.830Z,99.99
2024-05-09T01:20:37.031Z,99.99
2024-05-09T01:21:28.389Z,99.99
2024-05-09T01:22:27.477Z,99.99
2024-05-09T01:23:27.415Z,99.99
2024-05-09T01:24:27.372Z,99.99
2024-05-09T01:25:27.369Z,99.99
2024-05-09T01:26:27.479Z,99.99
2024-05-09T01:27:27.378Z,99.99
2024-05-09T01:28:27.324Z,99.99
2024-05-09T01:29:27.395Z,99.99
2024-05-09T01:30:33.956Z,99.99
2024-05-09T01:31:28.324Z,99.99
2024-05-09T01:32:27.481Z,99.99
2024-05-09T01:33:27.658Z,99.99
2024-05-09T01:34:27.271Z,99.99
2024-05-09T01:35:27.294Z,99.99
2024-05-09T01:36:27.241Z,99.99
2024-05-09T01:37:27.241Z,99.99
2024-05-09T01:38:27.258Z,99.99
2024-05-09T01:39:27.250Z,99.99
2024-05-09T01:40:36.357Z,99.99
2024-05-09T01:41:28.311Z,99.99
2024-05-09T01:42:27.168Z,99.99
2024-05-09T01:43:27.162Z,99.99
2024-05-09T01:44:27.322Z,99.99
2024-05-09T01:45:27.151Z,99.99
2024-05-09T01:46:27.138Z,99.99
2024-05-09T01:47:27.337Z,99.99
2024-05-09T01:48:27.185Z,99.99
2024-05-09T01:49:27.205Z,99.99
2024-05-09T01:51:27.088Z,99.99
2024-05-09T01:52:27.071Z,99.99
2024-05-09T01:53:27.075Z,99.99
2024-05-09T01:54:27.064Z,99.99
2024-05-09T01:55:27.069Z,99.99
2024-05-09T01:56:27.093Z,99.99
2024-05-09T01:57:27.013Z,99.99
2024-05-09T01:58:27.006Z,99.99
2024-05-09T01:59:27.186Z,99.99
2024-05-09T02:00:36.352Z,99.99
2024-05-09T02:01:28.023Z,99.99
2024-05-09T02:02:27.009Z,99.99
2024-05-09T02:03:27.106Z,99.99
2024-05-09T02:04:27.128Z,99.99
2024-05-09T02:05:27.047Z,99.99
2024-05-09T02:06:26.932Z,99.99
2024-05-09T02:07:26.910Z,99.99
2024-05-09T02:08:26.926Z,99.99
2024-05-09T02:09:26.896Z,99.99
2024-05-09T02:10:32.330Z,99.99
2024-05-09T02:11:27.947Z,99.99
2024-05-09T02:12:26.900Z,99.99
2024-05-09T02:13:26.855Z,99.99
2024-05-09T02:14:26.976Z,99.99
2024-05-09T02:15:26.862Z,99.99
2024-05-09T02:16:26.840Z,99.99
2024-05-09T02:17:27.012Z,99.99
2024-05-09T02:18:26.883Z,99.99
2024-05-09T02:19:26.910Z,99.99
2024-05-09T02:20:33.150Z,99.99
2024-05-09T02:21:27.787Z,99.99
2024-05-09T02:22:26.764Z,99.99
2024-05-09T02:23:26.812Z,99.99
2024-05-09T02:24:26.748Z,99.99
2024-05-09T02:25:26.727Z,99.99
2024-05-09T02:26:26.800Z,99.99
2024-05-09T02:27:26.803Z,99.99
2024-05-09T02:28:26.686Z,99.99
2024-05-09T02:29:26.847Z,99.99
2024-05-09T02:30:36.535Z,99.99
2024-05-09T02:31:27.645Z,99.99
2024-05-09T02:32:26.861Z,99.99
2024-05-09T02:33:26.852Z,99.99
2024-05-09T02:34:26.696Z,99.99
2024-05-09T02:35:26.780Z,99.99
2024-05-09T02:36:26.670Z,99.99
2024-05-09T02:37:26.603Z,99.99
2024-05-09T02:38:26.627Z,99.99
2024-05-09T02:39:26.573Z,99.99
2024-05-09T02:40:35.539Z,99.99
2024-05-09T02:41:27.659Z,99.99
2024-05-09T02:42:26.533Z,99.99
2024-05-09T02:43:26.537Z,99.99
2024-05-09T02:44:26.700Z,99.99
2024-05-09T02:45:26.522Z,99.99
2024-05-09T02:46:26.543Z,99.99
2024-05-09T02:47:26.711Z,99.99
2024-05-09T02:48:26.650Z,99.99
2024-05-09T02:49:26.575Z,99.99
2024-05-09T02:50:34.254Z,99.99
2024-05-09T02:51:27.460Z,99.99
2024-05-09T02:52:26.436Z,99.99
2024-05-09T02:53:26.455Z,99.99
2024-05-09T02:54:26.404Z,99.99
2024-05-09T02:55:26.402Z,99.99
2024-05-09T02:56:26.467Z,99.99
2024-05-09T02:57:26.369Z,99.99
2024-05-09T02:58:26.374Z,99.99
2024-05-09T02:59:26.442Z,99.99
2024-05-09T03:00:34.736Z,99.99
2024-05-09T03:01:27.346Z,99.99
2024-05-09T03:02:26.413Z,99.99
2024-05-09T03:03:26.822Z,99.99
2024-05-09T03:04:26.405Z,99.99
2024-05-09T03:05:26.344Z,99.99
2024-05-09T03:06:26.270Z,99.99
2024-05-09T03:07:26.258Z,99.99
2024-05-09T03:08:26.274Z,99.99
2024-05-09T03:09:26.246Z,99.99
2024-05-09T03:10:28.988Z,99.99
2024-05-09T03:11:27.325Z,99.99
2024-05-09T03:12:26.272Z,99.99
2024-05-09T03:13:26.230Z,99.99
2024-05-09T03:14:26.301Z,99.99
2024-05-09T03:15:26.182Z,99.99
2024-05-09T03:16:26.180Z,99.99
2024-05-09T03:17:26.304Z,99.99
2024-05-09T03:18:26.223Z,99.99
2024-05-09T03:19:26.304Z,99.99
2024-05-09T03:20:32.578Z,99.99
2024-05-09T03:21:27.114Z,99.99
2024-05-09T03:22:26.114Z,99.99
2024-05-09T03:23:26.195Z,99.99
2024-05-09T03:24:26.085Z,99.99
2024-05-09T03:25:26.064Z,99.99
2024-05-09T03:26:26.169Z,99.99
2024-05-09T03:27:26.044Z,99.99
2024-05-09T03:28:26.158Z,99.99
2024-05-09T03:29:26.132Z,99.99
2024-05-09T03:30:35.626Z,99.99
2024-05-09T03:31:26.998Z,99.99
2024-05-09T03:32:26.122Z,99.99
2024-05-09T03:33:26.443Z,99.99
2024-05-09T03:34:26.022Z,99.99
2024-05-09T03:35:26.053Z,99.99
2024-05-09T03:36:25.951Z,99.99
2024-05-09T03:37:25.992Z,99.99
2024-05-09T03:38:25.972Z,99.99
2024-05-09T03:39:25.914Z,99.99
2024-05-09T03:40:29.038Z,99.99
2024-05-09T03:41:25.945Z,99.99
2024-05-09T03:42:25.907Z,99.99
2024-05-09T03:43:25.878Z,99.99
2024-05-09T03:44:25.984Z,99.99
2024-05-09T03:45:25.859Z,99.99
2024-05-09T03:46:25.863Z,99.99
2024-05-09T03:47:26.094Z,99.99
2024-05-09T03:48:26.083Z,99.99
2024-05-09T03:49:26.069Z,99.99
2024-05-09T03:50:30.623Z,99.99
2024-05-09T03:51:26.794Z,99.99
2024-05-09T03:52:25.774Z,99.99
2024-05-09T03:53:25.806Z,99.99
2024-05-09T03:54:25.763Z,99.99
2024-05-09T03:55:25.748Z,99.99
2024-05-09T03:56:25.799Z,99.99
2024-05-09T03:57:25.718Z,99.99
2024-05-09T03:58:25.721Z,99.99
2024-05-09T03:59:25.854Z,99.99
2024-05-09T04:00:34.238Z,99.99
2024-05-09T04:01:26.828Z,99.99
2024-05-09T04:02:25.777Z,99.99
2024-05-09T04:03:25.985Z,99.99
2024-05-09T04:04:25.725Z,99.99
2024-05-09T04:05:25.768Z,99.99
2024-05-09T04:06:25.634Z,99.99
2024-05-09T04:07:25.647Z,99.99
2024-05-09T04:08:25.720Z,99.99
2024-05-09T04:09:25.603Z,99.99
2024-05-09T04:10:32.340Z,99.99
2024-05-09T04:11:26.782Z,99.99
2024-05-09T04:12:25.607Z,99.99
2024-05-09T04:13:25.739Z,99.99
2024-05-09T04:14:25.621Z,99.99
2024-05-09T04:15:25.550Z,99.99
2024-05-09T04:16:25.529Z,99.99
2024-05-09T04:17:25.601Z,99.99
2024-05-09T04:18:25.559Z,99.99
2024-05-09T04:19:25.636Z,99.99
2024-05-09T04:20:35.964Z,99.99
2024-05-09T04:21:26.468Z,99.99
2024-05-09T04:22:25.455Z,99.99
2024-05-09T04:23:25.470Z,99.99
2024-05-09T04:24:25.445Z,99.99
2024-05-09T04:25:25.422Z,99.99
2024-05-09T04:26:25.453Z,99.99
2024-05-09T04:27:25.394Z,99.99
2024-05-09T04:28:25.410Z,99.99
2024-05-09T04:29:25.548Z,99.99
2024-05-09T04:30:34.614Z,99.99
2024-05-09T04:31:26.361Z,99.99
2024-05-09T04:32:25.514Z,99.99
2024-05-09T04:33:25.880Z,99.99
2024-05-09T04:34:25.393Z,99.99
2024-05-09T04:35:25.573Z,99.99
2024-05-09T04:36:25.305Z,99.99
2024-05-09T04:37:25.289Z,99.99
2024-05-09T04:38:25.415Z,99.99
2024-05-09T04:39:25.271Z,99.99
2024-05-09T04:40:32.861Z,99.99
2024-05-09T04:41:26.387Z,99.99
2024-05-09T04:42:25.236Z,99.99
2024-05-09T04:43:25.247Z,99.99
2024-05-09T04:44:25.317Z,99.99
2024-05-09T04:45:25.205Z,99.99
2024-05-09T04:46:25.203Z,99.99
2024-05-09T04:47:25.355Z,99.99
2024-05-09T04:48:25.318Z,99.99
2024-05-09T04:49:25.302Z,99.99
2024-05-09T04:50:33.467Z,99.99
2024-05-09T04:51:26.147Z,99.99
2024-05-09T04:52:25.146Z,99.99
2024-05-09T04:53:25.161Z,99.99
2024-05-09T04:54:33.822Z,99.99
2024-05-09T04:55:26.099Z,99.99
2024-05-09T04:56:25.131Z,99.99
2024-05-09T04:57:25.100Z,99.99
2024-05-09T04:58:25.066Z,99.99
2024-05-09T04:59:25.251Z,99.99
2024-05-09T05:00:34.154Z,99.99
2024-05-09T05:01:26.083Z,99.99
2024-05-09T05:02:25.171Z,99.99
2024-05-09T05:03:25.290Z,99.99
2024-05-09T05:04:25.080Z,99.99
2024-05-09T05:05:25.017Z,99.99
2024-05-09T05:06:25.016Z,99.99
2024-05-09T05:07:24.972Z,99.99
2024-05-09T05:08:25.048Z,99.99
2024-05-09T05:09:24.947Z,99.99
2024-05-09T05:10:33.077Z,99.99
2024-05-09T05:11:26.045Z,99.99
2024-05-09T05:12:25.164Z,99.99
2024-05-09T05:13:25.350Z,99.99
2024-05-09T05:14:25.002Z,99.99
2024-05-09T05:15:24.890Z,99.99
2024-05-09T05:16:24.860Z,99.99
2024-05-09T05:17:25.016Z,99.99
2024-05-09T05:18:25.059Z,99.99
2024-05-09T05:19:24.950Z,99.99
2024-05-09T05:20:32.557Z,99.99
2024-05-09T05:21:26.133Z,99.99
2024-05-09T05:22:24.803Z,99.99
2024-05-09T05:23:24.932Z,99.99
2024-05-09T05:24:24.781Z,99.99
2024-05-09T05:25:24.795Z,99.99
2024-05-09T05:26:24.831Z,99.99
2024-05-09T05:27:24.914Z,99.99
2024-05-09T05:28:24.759Z,99.99
2024-05-09T05:29:24.830Z,99.99
2024-05-09T05:30:28.844Z,99.99
2024-05-09T05:31:25.768Z,99.99
2024-05-09T05:32:24.909Z,99.99
2024-05-09T05:33:24.740Z,99.99
2024-05-09T05:34:24.752Z,99.99
2024-05-09T05:35:24.814Z,99.99
2024-05-09T05:36:24.680Z,99.99
2024-05-09T05:37:24.642Z,99.99
2024-05-09T05:38:27.513Z,99.99
2024-05-09T05:39:24.630Z,99.99
2024-05-09T05:40:32.948Z,99.99
2024-05-09T05:41:25.663Z,99.99
2024-05-09T05:42:24.595Z,99.99
2024-05-09T05:43:24.627Z,99.99
2024-05-09T05:44:24.666Z,99.99
2024-05-09T05:45:24.557Z,99.99
2024-05-09T05:46:24.566Z,99.99
2024-05-09T05:47:24.917Z,99.99
2024-05-09T05:48:24.676Z,99.99
2024-05-09T05:49:24.679Z,99.99
2024-05-09T05:50:32.363Z,99.99
2024-05-09T05:51:25.532Z,99.99
2024-05-09T05:52:24.476Z,99.99
2024-05-09T05:53:25.257Z,99.99
2024-05-09T05:54:24.472Z,99.99
2024-05-09T05:55:24.454Z,99.99
2024-05-09T05:56:24.526Z,99.99
2024-05-09T05:57:24.435Z,99.99
2024-05-09T05:58:24.432Z,99.99
2024-05-09T05:59:24.442Z,99.99
2024-05-09T06:00:30.085Z,99.99
2024-05-09T06:01:25.399Z,99.99
2024-05-09T06:02:24.500Z,99.99
2024-05-09T06:03:24.392Z,99.99
2024-05-09T06:04:24.391Z,99.99
2024-05-09T06:05:27.237Z,99.99
2024-05-09T06:06:24.327Z,99.99
2024-05-09T06:07:24.336Z,99.99
2024-05-09T06:08:27.109Z,99.99
2024-05-09T06:09:24.294Z,99.99
2024-05-09T06:10:29.686Z,99.99
2024-05-09T06:11:25.500Z,99.99
2024-05-09T06:12:24.381Z,99.99
2024-05-09T06:13:24.264Z,99.99
2024-05-09T06:14:24.364Z,99.99
2024-05-09T06:15:24.231Z,99.99
2024-05-09T06:16:24.252Z,99.75
2024-05-09T06:17:24.474Z,98.63
2024-05-09T06:18:24.566Z,98.58
2024-05-09T06:19:24.436Z,98.79
2024-05-09T06:20:33.621Z,98.79
2024-05-09T06:21:25.226Z,98.33
2024-05-09T06:22:24.154Z,98.02
2024-05-09T06:23:24.160Z,98.94
2024-05-09T06:24:24.142Z,99.10
2024-05-09T06:25:24.153Z,98.79
2024-05-09T06:26:24.232Z,98.65
2024-05-09T06:27:24.099Z,98.03
2024-05-09T06:28:24.104Z,96.15
2024-05-09T06:29:24.201Z,95.34
2024-05-09T06:30:30.775Z,95.04
2024-05-09T06:31:25.083Z,94.79
2024-05-09T06:32:24.223Z,92.55
2024-05-09T06:33:24.235Z,91.29
2024-05-09T06:34:24.119Z,91.03
2024-05-09T06:35:24.041Z,91.13
2024-05-09T06:36:24.022Z,90.72
2024-05-09T06:37:23.997Z,90.83
2024-05-09T06:38:24.017Z,90.88
2024-05-09T06:39:24.002Z,90.72
2024-05-09T06:40:29.270Z,90.58
2024-05-09T06:41:24.975Z,90.27
2024-05-09T06:42:24.051Z,90.27
2024-05-09T06:43:23.919Z,90.44
2024-05-09T06:44:23.964Z,91.14
2024-05-09T06:45:23.900Z,89.58
2024-05-09T06:46:23.922Z,88.46
2024-05-09T06:47:24.125Z,88.36
2024-05-09T06:48:24.098Z,88.52
2024-05-09T06:49:24.001Z,88.73
2024-05-09T06:50:27.914Z,88.21
2024-05-09T06:51:24.874Z,87.46
2024-05-09T06:52:23.831Z,87.46
2024-05-09T06:53:23.958Z,87.97
2024-05-09T06:54:23.818Z,88.03
2024-05-09T06:55:23.790Z,87.22
2024-05-09T06:56:23.832Z,86.31
2024-05-09T06:57:23.767Z,87.08
2024-05-09T06:58:23.776Z,85.30
2024-05-09T06:59:23.798Z,86.37
2024-05-09T07:00:30.743Z,86.07
2024-05-09T07:01:24.760Z,85.93
2024-05-09T07:02:23.830Z,84.61
2024-05-09T07:03:23.892Z,85.01
2024-05-09T07:04:23.757Z,84.30
2024-05-09T07:05:23.862Z,84.20
2024-05-09T07:06:23.678Z,84.70
2024-05-09T07:07:23.693Z,84.20
2024-05-09T07:08:23.752Z,84.30
2024-05-09T07:09:23.667Z,84.36
2024-05-09T07:10:29.028Z,83.45
2024-05-09T07:11:24.703Z,83.45
2024-05-09T07:12:23.723Z,83.96
2024-05-09T07:13:23.611Z,83.82
2024-05-09T07:14:23.640Z,82.84
2024-05-09T07:15:23.593Z,83.96
2024-05-09T07:16:23.579Z,84.02
2024-05-09T07:17:23.807Z,83.72
2024-05-09T07:18:23.761Z,83.07
2024-05-09T07:19:23.683Z,81.96
2024-05-09T07:20:32.146Z,82.26
2024-05-09T07:21:24.560Z,82.40
2024-05-09T07:22:23.536Z,83.21
2024-05-09T07:23:23.520Z,82.67
2024-05-09T07:24:23.492Z,81.85
2024-05-09T07:25:23.481Z,81.96
2024-05-09T07:26:23.573Z,81.35
2024-05-09T07:27:23.464Z,81.01
2024-05-09T07:28:23.456Z,80.04
2024-05-09T07:29:23.461Z,81.25
2024-05-09T07:30:30.560Z,81.51
2024-05-09T07:31:24.459Z,81.21
2024-05-09T07:32:23.524Z,83.09
2024-05-09T07:33:24.483Z,79.46
2024-05-09T07:34:23.611Z,79.69
2024-05-09T07:35:23.486Z,80.60
2024-05-09T07:36:23.365Z,80.80
2024-05-09T07:37:23.390Z,81.27
2024-05-09T07:38:23.446Z,79.96
2024-05-09T07:39:23.342Z,80.53
2024-05-09T07:40:32.455Z,79.82
2024-05-09T07:41:24.437Z,79.62
2024-05-09T07:42:23.308Z,78.81
2024-05-09T07:43:23.298Z,79.21
2024-05-09T07:44:23.429Z,79.41
2024-05-09T07:45:41.679Z,79.62
2024-05-09T07:47:17.306Z,81.94
2024-05-09T07:48:56.830Z,80.08
2024-05-09T07:53:30.373Z,78.03
2024-05-09T07:54:23.396Z,78.37
2024-05-09T07:55:23.335Z,79.41
2024-05-09T07:56:24.307Z,78.20
2024-05-09T07:57:23.199Z,78.55
2024-05-09T07:58:23.157Z,79.66
2024-05-09T07:59:23.149Z,78.91
2024-05-09T08:00:29.757Z,78.91
2024-05-09T08:01:24.443Z,78.81
2024-05-09T08:02:23.271Z,79.21
2024-05-09T08:03:23.488Z,79.52
2024-05-09T08:04:25.242Z,79.92
2024-05-09T08:05:23.164Z,78.77
2024-05-09T08:06:23.054Z,78.57
2024-05-09T08:07:23.157Z,79.01
2024-05-09T08:08:23.116Z,78.61
2024-05-09T08:09:23.024Z,78.71
2024-05-09T08:10:28.443Z,78.30
2024-05-09T08:11:24.210Z,78.37
2024-05-09T08:12:23.005Z,78.88
2024-05-09T08:13:23.283Z,77.73
2024-05-09T08:14:22.966Z,77.53
2024-05-09T08:15:22.968Z,77.53
2024-05-09T08:16:23.150Z,77.12
2024-05-09T08:17:23.069Z,76.88
2024-05-09T08:18:22.994Z,76.28
2024-05-09T08:19:23.022Z,76.68
2024-05-09T08:20:30.681Z,76.68
2024-05-09T08:21:23.903Z,75.87
2024-05-09T08:22:22.937Z,76.58
2024-05-09T08:23:22.880Z,76.84
2024-05-09T08:24:22.867Z,76.04
2024-05-09T08:25:22.895Z,76.40
2024-05-09T08:26:22.919Z,75.40
2024-05-09T08:27:22.853Z,74.52
2024-05-09T08:28:22.899Z,76.04
2024-05-09T08:29:22.820Z,76.04
2024-05-09T08:30:29.806Z,75.03
2024-05-09T08:31:23.863Z,75.54
2024-05-09T08:32:22.810Z,76.04
2024-05-09T08:33:22.942Z,76.00
2024-05-09T08:34:22.906Z,75.30
2024-05-09T08:35:22.762Z,75.90
2024-05-09T08:36:22.759Z,74.59
2024-05-09T08:37:26.059Z,75.70
2024-05-09T08:38:23.744Z,74.86
2024-05-09T08:39:22.747Z,76.07
2024-05-09T08:40:30.694Z,74.46
2024-05-09T08:41:23.709Z,74.32
2024-05-09T08:42:22.672Z,73.32
2024-05-09T08:43:22.978Z,72.81
2024-05-09T08:44:22.887Z,74.02
2024-05-09T08:45:22.735Z,73.92
2024-05-09T08:46:22.947Z,72.88
2024-05-09T08:47:22.806Z,71.97
2024-05-09T08:48:22.980Z,72.47
2024-05-09T08:49:22.857Z,72.07
2024-05-09T08:50:31.786Z,72.07
2024-05-09T08:51:23.602Z,72.57
2024-05-09T08:52:22.585Z,73.18
2024-05-09T08:53:22.658Z,72.54
2024-05-09T08:54:22.587Z,71.83
2024-05-09T08:55:22.665Z,73.14
2024-05-09T08:56:22.553Z,71.53
2024-05-09T08:57:22.554Z,72.00
2024-05-09T08:58:22.559Z,73.31
2024-05-09T08:59:22.816Z,73.51
2024-05-09T09:00:33.361Z,71.70
2024-05-09T09:01:23.642Z,72.41
2024-05-09T09:02:22.762Z,71.00
2024-05-09T09:03:22.618Z,69.79
2024-05-09T09:04:22.579Z,69.79
2024-05-09T09:05:22.515Z,68.48
2024-05-09T09:06:22.458Z,69.89
2024-05-09T09:07:22.482Z,69.56
2024-05-09T09:08:22.428Z,70.76
2024-05-09T09:09:22.443Z,68.65
2024-05-09T09:10:29.615Z,68.65
2024-05-09T09:11:23.454Z,69.35
2024-05-09T09:12:22.393Z,70.86
2024-05-09T09:13:22.436Z,71.16
2024-05-09T09:14:22.387Z,70.46
2024-05-09T09:15:22.365Z,69.56
2024-05-09T09:16:22.503Z,68.75
2024-05-09T09:17:22.436Z,69.89
2024-05-09T09:18:22.473Z,69.76
2024-05-09T09:19:22.507Z,69.85
2024-05-09T09:20:28.762Z,68.45
2024-05-09T09:21:23.307Z,68.62
2024-05-09T09:22:22.323Z,69.79
2024-05-09T09:23:22.315Z,66.75
2024-05-09T09:24:22.281Z,64.74
2024-05-09T09:25:22.293Z,63.43
2024-05-09T09:26:22.274Z,66.21
2024-05-09T09:27:22.270Z,67.82
2024-05-09T09:28:22.334Z,66.24
2024-05-09T09:29:22.256Z,67.35
2024-05-09T09:30:34.506Z,67.95
2024-05-09T09:31:23.330Z,68.62
2024-05-09T09:32:22.728Z,67.11
2024-05-09T09:33:22.328Z,67.14
2024-05-09T09:34:22.346Z,67.85
2024-05-09T09:35:22.251Z,67.02
2024-05-09T09:36:22.176Z,67.11
2024-05-09T09:37:22.173Z,66.82
2024-05-09T09:38:22.151Z,65.91
2024-05-09T09:39:22.164Z,66.41
2024-05-09T09:40:25.518Z,65.81
2024-05-09T09:41:22.141Z,66.99
2024-05-09T09:42:22.120Z,65.18
2024-05-09T09:43:22.732Z,64.98
2024-05-09T09:44:22.104Z,65.18
2024-05-09T09:45:22.113Z,66.28
2024-05-09T09:46:22.135Z,65.98
2024-05-09T09:47:22.150Z,67.76
2024-05-09T09:48:22.808Z,65.65
2024-05-09T09:49:22.074Z,66.42
2024-05-09T09:50:27.916Z,62.94
2024-05-09T09:51:23.028Z,65.85
2024-05-09T09:52:22.228Z,63.34
2024-05-09T09:53:21.993Z,63.17
2024-05-09T09:54:22.000Z,66.55
2024-05-09T09:55:22.093Z,64.84
2024-05-09T09:56:22.008Z,64.84
2024-05-09T09:57:21.957Z,66.05
2024-05-09T09:58:22.067Z,64.54
2024-05-09T09:59:21.955Z,64.54
2024-05-09T10:00:27.205Z,63.64
2024-05-09T10:01:23.137Z,64.04
2024-05-09T10:02:22.074Z,63.54
2024-05-09T10:03:22.020Z,63.84
2024-05-09T10:04:22.036Z,64.04
2024-05-09T10:05:22.158Z,64.65
2024-05-09T10:06:21.953Z,64.45
2024-05-09T10:07:21.948Z,62.24
2024-05-09T10:08:21.880Z,62.04
2024-05-09T10:09:21.878Z,61.94
2024-05-09T10:10:29.877Z,63.21
2024-05-09T10:11:22.983Z,63.01
2024-05-09T10:12:21.911Z,60.48
2024-05-09T10:13:21.929Z,58.37
2024-05-09T10:14:21.838Z,57.50
2024-05-09T10:15:21.793Z,58.50
2024-05-09T10:16:22.141Z,58.50
2024-05-09T10:17:21.801Z,58.11
2024-05-09T10:18:21.830Z,59.91
2024-05-09T10:19:21.949Z,59.28
2024-05-09T10:20:25.422Z,57.48
2024-05-09T10:21:22.758Z,56.77
2024-05-09T10:22:21.739Z,56.17
2024-05-09T10:23:21.738Z,54.57
2024-05-09T10:24:21.725Z,52.87
2024-05-09T10:25:21.916Z,55.74
2024-05-09T10:26:21.701Z,54.44
2024-05-09T10:27:21.697Z,55.85
2024-05-09T10:28:21.742Z,55.94
2024-05-09T10:29:21.695Z,52.64
2024-05-09T10:30:29.488Z,52.34
2024-05-09T10:31:22.716Z,52.84
2024-05-09T10:32:21.728Z,52.84
2024-05-09T10:33:21.753Z,56.05
2024-05-09T10:34:21.930Z,51.74
2024-05-09T10:35:21.627Z,52.57
2024-05-09T10:36:21.686Z,55.05
2024-05-09T10:37:21.737Z,53.94
2024-05-09T10:38:21.613Z,53.32
2024-05-09T10:39:21.591Z,53.62
2024-05-09T10:40:26.600Z,53.12
2024-05-09T10:41:22.681Z,53.92
2024-05-09T10:42:21.578Z,53.12
2024-05-09T10:43:21.600Z,51.34
2024-05-09T10:44:21.540Z,50.24
2024-05-09T10:45:21.555Z,50.54
2024-05-09T10:46:21.813Z,50.74
2024-05-09T10:47:21.592Z,49.64
2024-05-09T10:48:21.594Z,49.84
2024-05-09T10:49:21.669Z,50.54
2024-05-09T10:50:28.166Z,51.72
2024-05-09T10:51:22.469Z,49.91
2024-05-09T10:52:21.510Z,53.79
2024-05-09T10:53:21.464Z,49.49
2024-05-09T10:54:21.483Z,48.60
2024-05-09T10:55:21.990Z,47.60
2024-05-09T10:56:21.456Z,51.59
2024-05-09T10:57:21.429Z,50.74
2024-05-09T10:58:21.422Z,48.45
2024-05-09T10:59:21.402Z,47.85
2024-05-09T11:00:27.706Z,47.09
2024-05-09T11:01:22.523Z,47.79
2024-05-09T11:02:21.565Z,46.22
2024-05-09T11:03:21.657Z,48.11
2024-05-09T11:04:21.534Z,49.29
2024-05-09T11:05:21.552Z,47.09
2024-05-09T11:06:21.357Z,47.42
2024-05-09T11:07:21.557Z,47.22
2024-05-09T11:08:21.309Z,47.72
2024-05-09T11:09:21.329Z,46.81
2024-05-09T11:10:27.727Z,50.99
2024-05-09T11:11:22.323Z,48.27
2024-05-09T11:12:22.839Z,46.39
2024-05-09T11:13:21.315Z,46.89
2024-05-09T11:14:21.256Z,46.69
2024-05-09T11:15:21.265Z,52.00
2024-05-09T11:16:21.691Z,49.77
2024-05-09T11:17:21.411Z,52.25
2024-05-09T11:18:24.453Z,49.95
2024-05-09T11:19:21.362Z,49.02
2024-05-09T11:20:29.079Z,47.95
2024-05-09T11:21:22.195Z,46.65
2024-05-09T11:22:21.240Z,50.45
2024-05-09T11:23:21.202Z,49.85
2024-05-09T11:24:21.177Z,48.75
2024-05-09T11:25:21.189Z,47.35
2024-05-09T11:26:21.188Z,49.55
2024-05-09T11:27:21.145Z,49.05
2024-05-09T11:28:21.260Z,48.02
2024-05-09T11:29:21.142Z,48.45
2024-05-09T11:30:26.971Z,49.22
2024-05-09T11:31:22.462Z,48.85
2024-05-09T11:32:21.167Z,48.35
2024-05-09T11:33:21.154Z,48.94
2024-05-09T11:34:21.114Z,49.35
2024-05-09T11:35:21.087Z,47.85
2024-05-09T11:36:21.068Z,47.55
2024-05-09T11:37:21.108Z,48.14
2024-05-09T11:38:21.042Z,50.24
2024-05-09T11:39:21.068Z,49.05
2024-05-09T11:40:25.574Z,47.65
2024-05-09T11:41:22.011Z,49.35
2024-05-09T11:42:21.023Z,48.94
2024-05-09T11:43:21.350Z,50.04
2024-05-09T11:44:21.009Z,50.15
2024-05-09T11:45:20.985Z,48.75
2024-05-09T11:46:21.108Z,49.02
2024-05-09T11:47:21.080Z,48.35
2024-05-09T11:48:21.482Z,50.82
2024-05-09T11:49:23.131Z,50.92
2024-05-09T11:50:27.209Z,49.82
2024-05-09T11:51:21.934Z,48.22
2024-05-09T11:52:20.969Z,49.12
2024-05-09T11:53:20.928Z,48.82
2024-05-09T11:54:20.992Z,47.63
2024-05-09T11:55:22.507Z,46.55
2024-05-09T11:56:20.903Z,50.15
2024-05-09T11:57:20.886Z,48.35
2024-05-09T11:58:21.169Z,51.72
2024-05-09T11:59:20.864Z,50.60
2024-05-09T12:00:29.435Z,53.66
2024-05-09T12:01:23.126Z,52.34
2024-05-09T12:02:20.944Z,49.65
2024-05-09T12:03:20.920Z,52.64
2024-05-09T12:04:21.197Z,49.35
2024-05-09T12:05:21.095Z,49.05
2024-05-09T12:06:20.927Z,51.05
2024-05-09T12:07:20.933Z,51.32
2024-05-09T12:08:20.777Z,50.15
2024-05-09T12:09:20.802Z,48.55
2024-05-09T12:10:26.051Z,50.27
2024-05-09T12:11:21.838Z,49.68
2024-05-09T12:12:20.759Z,48.48
2024-05-09T12:13:20.844Z,47.50
2024-05-09T12:14:20.731Z,51.29
2024-05-09T12:15:20.713Z,49.27
2024-05-09T12:16:20.887Z,50.07
2024-05-09T12:17:20.864Z,50.57
2024-05-09T12:18:20.714Z,49.18
2024-05-09T12:19:20.741Z,49.77
2024-05-09T12:20:28.584Z,49.27
2024-05-09T12:21:21.671Z,51.47
2024-05-09T12:22:20.729Z,49.50
2024-05-09T12:23:20.649Z,50.70
2024-05-09T12:24:20.656Z,51.50
2024-05-09T12:25:20.677Z,51.10
2024-05-09T12:26:20.643Z,50.90
2024-05-09T12:27:20.624Z,50.40
2024-05-09T12:28:20.689Z,50.90
2024-05-09T12:29:20.591Z,51.10
2024-05-09T12:30:32.487Z,51.97
2024-05-09T12:31:21.611Z,49.98
2024-05-09T12:32:20.655Z,52.67
2024-05-09T12:33:20.818Z,49.50
2024-05-09T12:34:20.600Z,49.70
2024-05-09T12:35:20.551Z,49.08
2024-05-09T12:36:20.530Z,48.50
2024-05-09T12:37:20.566Z,48.60
2024-05-09T12:38:20.533Z,49.20
2024-05-09T12:39:20.664Z,52.37
2024-05-09T12:40:26.865Z,50.97
2024-05-09T12:41:21.499Z,49.48
2024-05-09T12:42:27.154Z,50.87
2024-05-09T12:43:21.519Z,50.97
2024-05-09T12:44:20.475Z,48.97
2024-05-09T12:45:20.459Z,52.07
2024-05-09T12:46:20.505Z,50.37
2024-05-09T12:47:20.510Z,50.77
2024-05-09T12:48:20.583Z,51.07
2024-05-09T12:49:20.733Z,50.27
2024-05-09T12:50:29.148Z,50.57
2024-05-09T12:51:21.412Z,48.80
2024-05-09T12:52:20.470Z,49.60
2024-05-09T12:53:20.443Z,49.30
2024-05-09T12:54:20.379Z,51.47
2024-05-09T12:55:20.411Z,50.77
2024-05-09T12:56:20.375Z,49.98
2024-05-09T12:57:20.335Z,48.68
2024-05-09T12:58:20.377Z,49.57